Showell, MD (21862)

8:06 PM EDT on October 24, 2014 (GMT -0400)
The Cross Residence | Change Station
CLOSE
Current Station
Personal Weather Station
Location: Showell, MD
Elevation: 25 ft
Nearby Weather Stations

Elev 25 ft 38.39 °N, 75.23 °W | Updated 3 seconds ago

Clear
Clear
55.0 °F
Feels Like 55.0 °F
N
0.0
Wind Variable Wind from West
Gusts 0.0 mph

Today
High -- | Low -- °F
--% Chance of Precip.
Yesterday
High -- | Low -- °F
Precip. -- in
7:18 AM 6:10 PM
New Moon, 1% visible
Pressure 29.89 in
Visibility 10.0 miles
Clouds Clear
Dew Point 48 °F
Humidity 78%
Rainfall 0.00 in
Snow Depth Not available.
UV 0 out of 12
Pollen 1.60 out of 12
Air Quality Not available.
Flu Activity Sporadic
METAR KOXB 242353Z AUTO 27007KT 10SM CLR 14/08 A2989 RMK AO2 SLP121 T01390078 10200 20139 51015 TSNO

More Conditions Fewer Conditions

Pressure 29.89 in
Visibility 10.0 miles
Clouds Clear
Dew Point 48 °F
Humidity 78%
Rainfall 0.00 in
Snow Depth Not available.
UV 0 out of 12
Pollen 1.60 out of 12
Air Quality Not available.
Flu Activity Sporadic
METAR KOXB 242353Z AUTO 27007KT 10SM CLR 14/08 A2989 RMK AO2 SLP121 T01390078 10200 20139 51015 TSNO

More Conditions Fewer Conditions

10-Day Weather Forecast

Almanac

Astronomy

Oct. 24, 2014 Rise Set
Actual Time 7:18 AM EDT 6:10 PM EDT
Civil Twilight 6:51 AM EDT 6:37 PM EDT
Nautical Twilight 6:20 AM EDT 7:08 PM EDT
Astronomical Twilight 5:50 AM EDT 7:39 PM EDT
Moon 7:55 AM EDT (10/24) 6:49 PM EDT (10/24)
Length of Visible Light 11h 45m
Length of Day
10h 51m
Tomorrow will be 2m 18s shorter.
New Moon, 1% of the Moon is Illuminated
Today
New Moon
Oct 30
First Quarter
Nov 6
Full
Nov 14
Last Quarter
Nov 22
New

Today's Extremes

State Highs State Lows

Community

WunderPhotos

Upload Photos

1,764,721 photos uploaded!

Nearby

Snow Depth

Station Depth Elevation
No new snow has been reported.

Earthquake Activity

City Distance Mag. Time & Date
No recent earthquake activity has been reported nearby.
Minimum magnitude displayed is 2.5.

Coastal Water Temperatures

Place Temperature
Ocean City Inlet, MD 62.1 °F
Wachapreague, VA 61.0 °F
Lewes, DE 60.1 °F
Cape May, NJ 64.0 °F
Bishops Head, MD 57.9 °F

Nearby Weather Stations